aviador You're here:

LFPO Decoded Metar

PARIS ORLY in FRANCE
Report Time2017-08-19 20:00:00
UTC Time2017-08-19 20:24:36
Flight Rules vfr VFR
WindVRB at 02 kt
Visibility9999 m
Phenomena:N/A
Clouds:Few 043 Hf
Scattered 053 Hf
Expected CloudBase > 2,000 ft AGL from Temp-Dew spread
CeilingNone
Temp15°C (ISA +1)
Dew Point10°C (72% RH)
AAT14.3°C
QNH1023 hPa
Density Alt220 ft
Elevation315 ft
Report Wrong Elevation
Raw Report
LFPO 192000Z VRB02KT 9999 FEW043 SCT053 15/10 Q1023 NOSIG=

Extra information for LFPO:More info

Metar Taf Metar & Taf Last 4 Metars F.Rules Stats Wind Profile Meteogram Temp Stats Airport Information Weather charts Add Link Nearby VenuesMetar ALERT Operation Metar Decoded Social comments